LFOE

Évreux-Fauville (BA 105) Air Base

Airport
ICAO code
LFOE
Summary
ICAO Region
EUR
ICAO Territory
Location

, Haute-Normandie

Serving
Evreux
Elevation
464 ft
Coordinates
49° 1' 43" N , 1° 13' 12" E
Metar
LFOE 161430Z AUTO 29013G24KT 9999 FEW045 SCT058 BKN068 10/06 Q1014 TEMPO BKN025TCU

Runways

Designator Length Width Surface Rops
4/22 2995 45 ASP No/No

Airport map

Aerial View

SKYbrary Partners:

Safety knowledge contributed by: